Time;durP1;ratioP1;P1;durP2;ratioP2;P2;SDS_P1;SDS_P2;PMS_P1;PMS_P2;Temp;Humidity;BMP_temperature;BMP_pressure;BME280_temperature;BME280_humidity;BME280_pressure;Samples;Min_cycle;Max_cycle;Signal;HPM_P1;HPM_P2
2021/06/01 05:56:43;;;;;;;8.75;6.10;;;;;;;;;;5276434;23;20374;-60
2021/06/01 05:59:09;;;;;;;8.45;6.07;;;;;;;;;;4895917;29;20504;-80
2021/06/01 06:01:35;;;;;;;8.25;6.28;;;;;;;;;;4895490;29;20368;-61
2021/06/01 06:04:02;;;;;;;9.15;7.20;;;;;;;;;;4896336;29;20044;-78
2021/06/01 06:06:28;;;;;;;7.90;6.43;;;;;;;;;;4896244;29;20024;-63
2021/06/01 06:08:54;;;;;;;13.23;7.03;;;;;;;;;;4896287;29;20028;-60
2021/06/01 06:11:20;;;;;;;9.70;7.10;;;;;;;;;;4895732;29;20029;-61
2021/06/01 06:13:46;;;;;;;11.98;6.78;;;;;;;;;;4894477;29;20069;-66
2021/06/01 06:16:17;;;;;;;9.75;7.50;;;;;;;;;;4893835;29;20552;-82
2021/06/01 06:18:47;;;;;;;12.23;7.68;;;;;;;;;;4892769;29;20384;-62
2021/06/01 06:21:13;;;;;;;9.60;7.13;;;;;;;;;;4894599;29;20037;-60
2021/06/01 06:23:41;;;;;;;8.80;6.75;;;;;;;;;;4894578;29;20025;-61
2021/06/01 06:26:07;;;;;;;9.18;6.90;;;;;;;;;;4894916;29;20091;-61
2021/06/01 06:28:33;;;;;;;9.85;6.65;;;;;;;;;;4894295;29;20033;-60
2021/06/01 06:31:00;;;;;;;9.10;7.10;;;;;;;;;;4894814;29;20025;-59
2021/06/01 06:33:26;;;;;;;16.58;7.57;;;;;;;;;;4894577;29;20103;-61
2021/06/01 06:35:52;;;;;;;11.63;6.60;;;;;;;;;;4894378;29;20037;-65
2021/06/01 06:38:19;;;;;;;14.35;6.47;;;;;;;;;;4892443;29;20024;-63
2021/06/01 06:40:52;;;;;;;17.75;6.45;;;;;;;;;;4893055;29;20025;-62
2021/06/01 06:43:18;;;;;;;16.23;7.07;;;;;;;;;;4890298;29;20484;-64
2021/06/01 06:45:46;;;;;;;12.45;6.00;;;;;;;;;;4893532;29;20488;-61
2021/06/01 06:48:13;;;;;;;15.05;7.38;;;;;;;;;;4894562;29;20027;-62
2021/06/01 06:50:40;;;;;;;12.00;6.25;;;;;;;;;;4893668;29;20023;-63
2021/06/01 06:53:06;;;;;;;8.52;6.82;;;;;;;;;;4894899;29;20064;-63
2021/06/01 06:55:33;;;;;;;9.13;6.35;;;;;;;;;;4895143;29;20048;-63
2021/06/01 06:57:59;;;;;;;11.25;6.80;;;;;;;;;;4894221;29;20103;-65
2021/06/01 07:00:25;;;;;;;13.35;6.68;;;;;;;;;;4895067;29;20037;-62
2021/06/01 07:02:52;;;;;;;11.20;6.38;;;;;;;;;;4895596;29;20438;-63
2021/06/01 07:05:19;;;;;;;9.98;6.60;;;;;;;;;;4895655;29;20589;-61
2021/06/01 07:07:46;;;;;;;8.35;6.57;;;;;;;;;;4895682;29;20048;-62
2021/06/01 07:10:13;;;;;;;8.90;6.57;;;;;;;;;;4896608;29;20033;-61
2021/06/01 07:12:43;;;;;;;10.18;6.70;;;;;;;;;;4895924;29;20028;-61
2021/06/01 07:15:30;;;;;;;13.35;7.10;;;;;;;;;;4895188;29;20040;-60
2021/06/01 07:17:59;;;;;;;10.70;6.65;;;;;;;;;;4895561;29;20029;-61
2021/06/01 07:20:30;;;;;;;10.57;5.97;;;;;;;;;;4895009;29;20504;-63
2021/06/01 07:22:56;;;;;;;6.57;5.13;;;;;;;;;;4895378;29;20088;-62
2021/06/01 07:25:22;;;;;;;7.68;5.13;;;;;;;;;;4894837;29;20116;-62
2021/06/01 07:27:48;;;;;;;9.75;6.32;;;;;;;;;;4894961;29;20044;-63
2021/06/01 07:30:15;;;;;;;11.23;6.25;;;;;;;;;;4894868;29;20033;-63
2021/06/01 07:32:41;;;;;;;10.32;5.60;;;;;;;;;;4895620;29;20028;-62
2021/06/01 07:35:08;;;;;;;10.05;5.55;;;;;;;;;;4878654;29;20024;-63
2021/06/01 07:37:34;;;;;;;11.20;6.10;;;;;;;;;;4878522;29;20037;-64
2021/06/01 07:40:00;;;;;;;10.70;6.53;;;;;;;;;;4877910;29;20037;-63
2021/06/01 07:42:26;;;;;;;7.78;5.68;;;;;;;;;;4895307;29;20111;-64
2021/06/01 07:44:52;;;;;;;7.35;5.90;;;;;;;;;;4895262;29;20028;-65
2021/06/01 07:47:18;;;;;;;9.15;5.97;;;;;;;;;;4895098;29;20029;-64
2021/06/01 07:49:44;;;;;;;9.50;6.07;;;;;;;;;;4895444;29;20054;-65
2021/06/01 07:52:10;;;;;;;11.23;5.97;;;;;;;;;;4887806;29;20033;-61
2021/06/01 07:54:36;;;;;;;9.55;5.35;;;;;;;;;;4888355;29;20028;-64
2021/06/01 07:57:02;;;;;;;8.35;5.45;;;;;;;;;;4894724;29;20083;-63
2021/06/01 07:59:28;;;;;;;11.25;5.57;;;;;;;;;;4895058;29;20032;-62
2021/06/01 08:01:54;;;;;;;11.23;5.60;;;;;;;;;;4895101;29;20056;-65
2021/06/01 08:04:20;;;;;;;9.52;5.32;;;;;;;;;;4895140;29;20036;-64
2021/06/01 08:06:46;;;;;;;9.30;5.38;;;;;;;;;;4894824;29;20081;-64
2021/06/01 08:09:13;;;;;;;10.52;5.35;;;;;;;;;;4894999;29;20025;-66
2021/06/01 08:11:39;;;;;;;11.15;5.93;;;;;;;;;;4897418;29;20032;-65
2021/06/01 08:14:05;;;;;;;11.52;5.38;;;;;;;;;;4898251;29;20043;-64
2021/06/01 08:16:32;;;;;;;9.95;5.82;;;;;;;;;;4898623;29;20037;-63
2021/06/01 08:19:21;;;;;;;12.13;5.82;;;;;;;;;;4897841;29;20031;-63
2021/06/01 08:22:03;;;;;;;11.43;5.90;;;;;;;;;;4898185;29;20031;-62
2021/06/01 08:24:30;;;;;;;12.88;5.10;;;;;;;;;;4898676;29;20020;-61
2021/06/01 08:26:56;;;;;;;9.73;5.43;;;;;;;;;;4898071;29;20551;-63
2021/06/01 08:29:22;;;;;;;12.23;5.28;;;;;;;;;;4897607;29;20079;-63
2021/06/01 08:31:48;;;;;;;10.50;5.40;;;;;;;;;;4896834;29;20028;-62
2021/06/01 08:34:14;;;;;;;9.63;5.53;;;;;;;;;;4896520;29;20099;-63
2021/06/01 08:36:40;;;;;;;17.15;6.25;;;;;;;;;;4896661;29;20037;-64
2021/06/01 08:39:07;;;;;;;10.52;6.10;;;;;;;;;;4896600;29;20029;-63
2021/06/01 08:41:34;;;;;;;11.13;5.80;;;;;;;;;;4894619;29;20507;-61
2021/06/01 08:44:02;;;;;;;12.63;5.18;;;;;;;;;;4896661;29;20104;-63
2021/06/01 08:46:28;;;;;;;10.00;6.13;;;;;;;;;;4897963;29;20481;-62
2021/06/01 08:48:55;;;;;;;17.33;5.82;;;;;;;;;;4897559;29;20056;-64
2021/06/01 08:51:21;;;;;;;10.43;5.70;;;;;;;;;;4897961;29;20040;-64
2021/06/01 08:53:49;;;;;;;11.35;6.20;;;;;;;;;;4897309;29;20028;-63
2021/06/01 08:56:15;;;;;;;10.27;5.72;;;;;;;;;;4897816;29;20115;-63
2021/06/01 08:58:42;;;;;;;9.77;5.97;;;;;;;;;;4897391;29;20032;-63
2021/06/01 09:01:08;;;;;;;10.13;5.57;;;;;;;;;;4897837;29;20076;-63
2021/06/01 09:03:36;;;;;;;9.63;5.57;;;;;;;;;;4897110;29;20117;-64
2021/06/01 09:06:25;;;;;;;12.45;6.07;;;;;;;;;;4897180;29;20115;-62
2021/06/01 09:22:50;;;;;;;11.77;5.50;;;;;;;;;;4895439;29;20041;-62
2021/06/01 09:25:21;;;;;;;12.55;6.25;;;;;;;;;;4894224;29;20041;-62
2021/06/01 09:27:50;;;;;;;9.50;5.18;;;;;;;;;;4897018;29;20037;-62
2021/06/01 09:30:35;;;;;;;8.18;4.68;;;;;;;;;;4897267;29;20028;-66
2021/06/01 09:33:02;;;;;;;11.68;5.68;;;;;;;;;;4897378;29;20029;-63
2021/06/01 09:35:44;;;;;;;8.10;5.90;;;;;;;;;;4897124;29;20032;-64
2021/06/01 09:38:10;;;;;;;11.38;5.53;;;;;;;;;;4897480;29;20041;-62
2021/06/01 09:40:37;;;;;;;9.20;5.63;;;;;;;;;;4897023;29;20160;-65
2021/06/01 09:43:06;;;;;;;9.98;5.75;;;;;;;;;;4896737;29;20032;-65
2021/06/01 09:45:32;;;;;;;12.02;5.90;;;;;;;;;;4897140;29;20032;-64
2021/06/01 09:47:59;;;;;;;11.73;5.63;;;;;;;;;;4897145;29;20429;-64
2021/06/01 09:52:54;;;;;;;11.40;5.82;;;;;;;;;;4896477;29;20449;-63
2021/06/01 09:55:27;;;;;;;11.35;4.85;;;;;;;;;;4894241;29;20035;-63
2021/06/01 09:57:55;;;;;;;11.98;4.72;;;;;;;;;;4895984;29;20131;-63
2021/06/01 10:00:24;;;;;;;12.10;6.07;;;;;;;;;;4897294;29;20039;-63
2021/06/01 10:02:52;;;;;;;8.45;4.90;;;;;;;;;;4895987;29;20075;-65
2021/06/01 10:05:20;;;;;;;14.27;5.65;;;;;;;;;;4896557;29;20032;-63
2021/06/01 10:07:47;;;;;;;10.52;4.75;;;;;;;;;;4895833;29;20029;-65
2021/06/01 10:10:14;;;;;;;12.85;4.60;;;;;;;;;;4895961;29;20096;-65
2021/06/01 10:12:40;;;;;;;12.43;4.55;;;;;;;;;;4896285;29;20542;-64
2021/06/01 10:15:07;;;;;;;10.93;6.20;;;;;;;;;;4896416;29;20028;-64
2021/06/01 10:17:33;;;;;;;9.35;4.70;;;;;;;;;;4895518;29;20040;-63
2021/06/01 10:20:00;;;;;;;10.40;5.45;;;;;;;;;;4894514;29;20041;-64
2021/06/01 10:22:26;;;;;;;8.52;5.10;;;;;;;;;;4895071;29;20092;-63
2021/06/01 10:24:52;;;;;;;9.90;4.50;;;;;;;;;;4896137;29;20092;-63
2021/06/01 10:27:18;;;;;;;7.03;4.50;;;;;;;;;;4895655;29;20028;-64
2021/06/01 10:29:44;;;;;;;8.23;4.35;;;;;;;;;;4896092;29;20025;-62
2021/06/01 10:32:11;;;;;;;13.00;4.15;;;;;;;;;;4896340;29;20103;-62
2021/06/01 10:34:37;;;;;;;8.20;4.68;;;;;;;;;;4895941;29;20032;-63
2021/06/01 10:42:45;;;;;;;10.75;4.32;;;;;;;;;;4896134;29;20088;-63
2021/06/01 10:50:50;;;;;;;8.07;5.05;;;;;;;;;;4895641;29;20124;-63
2021/06/01 10:53:18;;;;;;;8.25;5.18;;;;;;;;;;4895054;29;20040;-63
2021/06/01 10:58:16;;;;;;;;;;;;;;;;;;4896066;29;20503;-64
2021/06/01 11:03:09;;;;;;;7.32;4.57;;;;;;;;;;4893085;29;20040;-64
2021/06/01 11:05:54;;;;;;;6.60;3.95;;;;;;;;;;4895861;29;20056;-63
2021/06/01 11:08:39;;;;;;;6.57;4.20;;;;;;;;;;4895363;29;20033;-63
2021/06/01 11:11:23;;;;;;;6.88;3.60;;;;;;;;;;4894964;29;20039;-64
2021/06/01 11:13:49;;;;;;;7.35;3.53;;;;;;;;;;4893704;29;20023;-63
2021/06/01 11:16:15;;;;;;;7.57;4.00;;;;;;;;;;4895068;29;20480;-64
2021/06/01 11:18:45;;;;;;;7.35;3.28;;;;;;;;;;4895790;29;20028;-63
2021/06/01 11:21:19;;;;;;;5.82;3.28;;;;;;;;;;4895356;29;20024;-62
2021/06/01 11:35:28;;;;;;;8.60;4.15;;;;;;;;;;4894558;29;20059;-60
2021/06/01 11:43:10;;;;;;;7.57;3.67;;;;;;;;;;4895799;29;20503;-63
2021/06/01 11:45:40;;;;;;;6.75;3.40;;;;;;;;;;4896011;29;20100;-74
2021/06/01 11:48:24;;;;;;;6.47;3.75;;;;;;;;;;4899096;29;20077;-60
2021/06/01 11:51:25;;;;;;;5.70;3.63;;;;;;;;;;4898932;29;20029;-60
2021/06/01 11:53:51;;;;;;;6.40;3.60;;;;;;;;;;4899076;29;20051;-60
2021/06/01 12:18:22;;;;;;;7.53;3.22;;;;;;;;;;4898862;29;19967;-69
2021/06/01 12:20:48;;;;;;;7.88;3.30;;;;;;;;;;4898237;29;20036;-59
2021/06/01 12:23:31;;;;;;;6.85;3.53;;;;;;;;;;4895481;29;20042;-62
2021/06/01 12:26:04;;;;;;;4.28;2.90;;;;;;;;;;4898743;29;20115;-58
2021/06/01 12:31:18;;;;;;;7.28;3.50;;;;;;;;;;4898644;29;20053;-61
2021/06/01 12:33:56;;;;;;;7.05;3.17;;;;;;;;;;4898197;29;20024;-65
2021/06/01 12:42:37;;;;;;;4.25;2.67;;;;;;;;;;4897255;29;20043;-61
2021/06/01 12:45:05;;;;;;;6.50;2.75;;;;;;;;;;4891046;29;20076;-68
2021/06/01 13:20:13;;;;;;;7.47;3.30;;;;;;;;;;4898145;29;20047;-58
2021/06/01 13:22:50;;;;;;;6.55;3.20;;;;;;;;;;4897878;29;20431;-57
2021/06/01 13:39:45;;;;;;;5.57;2.65;;;;;;;;;;4768108;30;20040;-57
2021/06/01 13:47:52;;;;;;;3.55;2.47;;;;;;;;;;4767562;30;20101;-58
2021/06/01 13:50:27;;;;;;;4.35;2.33;;;;;;;;;;4766954;30;20536;-59
2021/06/01 13:55:05;;;;;;;8.23;2.55;;;;;;;;;;4766834;30;20189;-60
2021/06/01 13:55:50;;;;;;;5.10;2.65;;;;;;;;;;4766755;30;20059;-58
2021/06/01 14:31:27;;;;;;;7.60;3.17;;;;;;;;;;4856310;29;20029;-62
2021/06/01 14:39:57;;;;;;;4.65;2.72;;;;;;;;;;4800487;29;20077;-75
2021/06/01 15:53:31;;;;;;;6.50;2.90;;;;;;;;;;4898769;29;20088;-62
2021/06/01 16:32:14;;;;;;;5.05;1.90;;;;;;;;;;4898490;29;20064;-60
2021/06/01 17:04:48;;;;;;;4.03;1.75;;;;;;;;;;4898151;29;20035;-70
2021/06/01 17:07:28;;;;;;;3.00;1.73;;;;;;;;;;4898134;29;20081;-70
2021/06/01 17:12:45;;;;;;;3.25;1.60;;;;;;;;;;4898229;29;20039;-69
2021/06/01 17:15:12;;;;;;;6.03;1.95;;;;;;;;;;4897802;29;20024;-81
2021/06/01 17:17:41;;;;;;;4.05;1.60;;;;;;;;;;4898022;29;20400;-67
2021/06/01 17:20:30;;;;;;;3.83;1.75;;;;;;;;;;4897572;29;20031;-81
2021/06/01 17:31:25;;;;;;;3.75;1.58;;;;;;;;;;4897612;29;20395;-82
2021/06/01 17:36:37;;;;;;;6.25;2.38;;;;;;;;;;4896913;29;20815;-60
2021/06/01 17:39:03;;;;;;;3.90;2.10;;;;;;;;;;4897087;29;20104;-67
2021/06/01 17:41:33;;;;;;;7.43;2.45;;;;;;;;;;4897355;29;20032;-59
2021/06/01 17:44:01;;;;;;;4.88;2.10;;;;;;;;;;4896154;29;20033;-62
2021/06/01 17:46:28;;;;;;;4.95;1.80;;;;;;;;;;4896909;29;20024;-64
2021/06/01 17:48:56;;;;;;;6.78;2.20;;;;;;;;;;4896796;29;20029;-64
2021/06/01 17:51:26;;;;;;;6.88;2.50;;;;;;;;;;4897200;29;20108;-75
2021/06/01 17:53:54;;;;;;;6.72;2.35;;;;;;;;;;4896312;29;20052;-70
2021/06/01 17:56:22;;;;;;;5.70;2.50;;;;;;;;;;4896326;29;20054;-67
2021/06/01 17:58:49;;;;;;;6.65;2.60;;;;;;;;;;4896965;29;20139;-61
2021/06/01 18:01:19;;;;;;;6.72;3.00;;;;;;;;;;4897285;29;20024;-62
2021/06/01 18:04:01;;;;;;;8.20;3.08;;;;;;;;;;4896697;29;20035;-61
2021/06/01 18:06:31;;;;;;;4.80;2.65;;;;;;;;;;4897333;29;20017;-64
2021/06/01 19:25:28;;;;;;;10.02;3.97;;;;;;;;;;4894498;29;20052;-67
2021/06/01 19:52:05;;;;;;;10.40;5.15;;;;;;;;;;4895016;29;20396;-70
2021/06/01 19:54:31;;;;;;;9.77;5.50;;;;;;;;;;4895226;29;20112;-68
2021/06/01 19:56:57;;;;;;;14.65;6.28;;;;;;;;;;4894769;29;20516;-72
2021/06/01 19:59:24;;;;;;;16.23;6.40;;;;;;;;;;4895832;29;20487;-70
2021/06/01 20:01:50;;;;;;;9.95;4.90;;;;;;;;;;4895467;29;20473;-68
2021/06/01 20:04:16;;;;;;;13.93;5.82;;;;;;;;;;4895449;29;20039;-69
2021/06/01 20:06:42;;;;;;;16.35;8.85;;;;;;;;;;4896664;29;20057;-70
2021/06/01 20:09:08;;;;;;;11.20;5.78;;;;;;;;;;4896251;29;20035;-71
2021/06/01 20:11:35;;;;;;;12.10;6.38;;;;;;;;;;4898737;29;20036;-68
2021/06/01 20:14:01;;;;;;;13.27;6.07;;;;;;;;;;4898943;29;20111;-70
2021/06/01 20:16:29;;;;;;;9.82;5.75;;;;;;;;;;4899039;29;20044;-70
2021/06/01 20:19:00;;;;;;;7.90;4.60;;;;;;;;;;4899042;29;20041;-70
2021/06/01 20:21:26;;;;;;;9.03;5.27;;;;;;;;;;4898875;29;20036;-70
2021/06/01 20:23:57;;;;;;;8.45;4.55;;;;;;;;;;4898698;29;20020;-69
2021/06/01 20:26:24;;;;;;;9.77;4.85;;;;;;;;;;4898332;29;20041;-69
2021/06/01 20:28:53;;;;;;;7.93;4.63;;;;;;;;;;4897626;29;20028;-70
2021/06/01 20:31:31;;;;;;;9.73;4.53;;;;;;;;;;4898475;29;20024;-69
2021/06/01 20:33:57;;;;;;;19.10;5.45;;;;;;;;;;4896631;29;20392;-70
2021/06/01 20:36:23;;;;;;;8.45;4.22;;;;;;;;;;4898590;29;20429;-72
2021/06/01 20:38:51;;;;;;;13.98;5.50;;;;;;;;;;4898227;29;20076;-69
2021/06/01 20:41:17;;;;;;;11.00;6.00;;;;;;;;;;4898118;29;20029;-68
2021/06/01 20:43:44;;;;;;;12.55;6.07;;;;;;;;;;4898375;29;20424;-73
2021/06/01 20:46:10;;;;;;;10.23;5.60;;;;;;;;;;4898415;29;20040;-69
2021/06/01 20:48:36;;;;;;;12.90;6.35;;;;;;;;;;4898367;29;20115;-69
2021/06/01 20:51:03;;;;;;;16.38;7.65;;;;;;;;;;4898766;29;20060;-70
2021/06/01 20:53:29;;;;;;;12.27;6.78;;;;;;;;;;4898815;29;20031;-68
2021/06/01 20:55:56;;;;;;;12.75;6.85;;;;;;;;;;4897970;29;20087;-69
2021/06/01 20:58:38;;;;;;;16.33;6.10;;;;;;;;;;4898206;29;20119;-71
2021/06/01 21:01:04;;;;;;;14.20;6.28;;;;;;;;;;4896909;29;20039;-67
2021/06/01 21:03:31;;;;;;;17.67;5.70;;;;;;;;;;4897682;29;20472;-69
2021/06/01 21:06:01;;;;;;;14.98;5.90;;;;;;;;;;4897967;29;20029;-68
2021/06/01 21:08:32;;;;;;;10.70;4.65;;;;;;;;;;4897923;29;20024;-70
2021/06/01 21:11:02;;;;;;;15.15;6.00;;;;;;;;;;4897388;29;20036;-67
2021/06/01 21:13:29;;;;;;;11.95;6.68;;;;;;;;;;4896701;29;20028;-72
2021/06/01 21:15:57;;;;;;;11.93;6.40;;;;;;;;;;4896695;29;20028;-70
2021/06/01 21:18:23;;;;;;;11.95;5.93;;;;;;;;;;4895706;29;20164;-67
2021/06/01 21:20:49;;;;;;;12.45;6.55;;;;;;;;;;4897270;29;20440;-66
2021/06/01 21:23:17;;;;;;;15.23;6.78;;;;;;;;;;4897218;29;20028;-68
2021/06/01 21:25:43;;;;;;;12.45;7.05;;;;;;;;;;4896937;29;20047;-67
2021/06/01 21:28:09;;;;;;;11.68;6.35;;;;;;;;;;4896594;29;20036;-67
2021/06/01 21:30:37;;;;;;;11.65;6.60;;;;;;;;;;4879505;29;20440;-66
2021/06/01 21:33:03;;;;;;;11.38;6.35;;;;;;;;;;4896322;29;20032;-68
2021/06/01 21:35:30;;;;;;;13.40;6.75;;;;;;;;;;4896712;29;20029;-69
2021/06/01 21:38:00;;;;;;;14.35;6.85;;;;;;;;;;4879676;29;20044;-68
2021/06/01 21:40:27;;;;;;;14.27;6.40;;;;;;;;;;4896724;29;20116;-68
2021/06/01 21:42:55;;;;;;;15.57;6.85;;;;;;;;;;4896793;29;20029;-67
2021/06/01 21:45:22;;;;;;;16.80;6.57;;;;;;;;;;4893271;29;20076;-68
2021/06/01 21:47:51;;;;;;;14.65;6.70;;;;;;;;;;4893154;29;20404;-68
2021/06/01 21:50:23;;;;;;;15.05;7.57;;;;;;;;;;4895784;29;20115;-68
2021/06/01 21:52:49;;;;;;;15.18;6.78;;;;;;;;;;4894433;29;20504;-71
2021/06/01 21:55:19;;;;;;;12.13;6.53;;;;;;;;;;4896327;29;20021;-73
2021/06/01 21:57:46;;;;;;;13.73;6.45;;;;;;;;;;4895439;29;20095;-73
2021/06/01 22:00:13;;;;;;;12.80;6.28;;;;;;;;;;4892967;29;20084;-69
2021/06/01 22:02:41;;;;;;;14.77;7.03;;;;;;;;;;4895933;29;20033;-69
2021/06/01 22:05:10;;;;;;;11.20;7.00;;;;;;;;;;4895394;29;20525;-71
2021/06/01 22:07:42;;;;;;;12.90;6.40;;;;;;;;;;4895796;29;20488;-72
2021/06/01 22:10:09;;;;;;;13.30;7.57;;;;;;;;;;4895963;29;20545;-67
2021/06/01 22:12:39;;;;;;;15.68;6.28;;;;;;;;;;4895742;29;20063;-67
2021/06/01 22:15:25;;;;;;;12.38;6.50;;;;;;;;;;4895721;29;20021;-71
2021/06/01 22:17:51;;;;;;;15.25;6.30;;;;;;;;;;4895035;29;20699;-69
2021/06/01 22:20:17;;;;;;;13.32;6.30;;;;;;;;;;4895708;29;20035;-69
2021/06/01 22:22:43;;;;;;;14.98;6.47;;;;;;;;;;4891740;29;20036;-66
2021/06/01 22:25:09;;;;;;;12.95;6.88;;;;;;;;;;4895025;29;20031;-68
2021/06/01 22:27:35;;;;;;;10.13;6.45;;;;;;;;;;4895257;29;20392;-66
2021/06/01 22:30:02;;;;;;;17.98;6.50;;;;;;;;;;4876003;29;20415;-66
2021/06/01 22:32:29;;;;;;;11.38;6.20;;;;;;;;;;4884387;29;20372;-65
2021/06/01 22:34:55;;;;;;;13.02;5.90;;;;;;;;;;4885633;29;20025;-65
2021/06/01 22:37:22;;;;;;;12.82;6.43;;;;;;;;;;4885183;29;20488;-65
2021/06/01 22:39:48;;;;;;;10.63;6.32;;;;;;;;;;4888292;29;20100;-70
2021/06/01 22:42:14;;;;;;;15.07;6.10;;;;;;;;;;4891534;29;20384;-65
2021/06/01 22:44:40;;;;;;;10.13;5.97;;;;;;;;;;4893772;29;20354;-64
2021/06/01 22:47:08;;;;;;;14.13;6.53;;;;;;;;;;4893963;29;20496;-66
2021/06/01 22:49:35;;;;;;;13.80;6.15;;;;;;;;;;4895304;29;20103;-64
2021/06/01 22:52:02;;;;;;;10.05;6.68;;;;;;;;;;4896057;29;20025;-66
2021/06/01 22:54:28;;;;;;;16.92;7.13;;;;;;;;;;4896261;29;20032;-66
2021/06/01 22:56:54;;;;;;;11.32;6.95;;;;;;;;;;4895933;29;20147;-67
2021/06/01 22:59:37;;;;;;;11.48;5.88;;;;;;;;;;4896318;29;20484;-66
2021/06/01 23:02:03;;;;;;;15.38;6.65;;;;;;;;;;4896519;29;20053;-67
2021/06/01 23:04:32;;;;;;;12.30;5.97;;;;;;;;;;4896196;29;20495;-67
2021/06/01 23:06:59;;;;;;;11.43;5.78;;;;;;;;;;4896452;29;20033;-66
2021/06/01 23:09:26;;;;;;;12.02;5.80;;;;;;;;;;4896353;29;20068;-66
2021/06/01 23:11:53;;;;;;;9.15;5.78;;;;;;;;;;4896176;29;20473;-66
2021/06/01 23:14:20;;;;;;;10.02;5.68;;;;;;;;;;4896371;29;20496;-67
2021/06/01 23:16:46;;;;;;;10.70;6.05;;;;;;;;;;4896252;29;20040;-66
2021/06/01 23:19:14;;;;;;;10.45;5.72;;;;;;;;;;4896181;29;20029;-65
2021/06/01 23:21:41;;;;;;;11.98;5.60;;;;;;;;;;4896510;29;20043;-65
2021/06/01 23:24:09;;;;;;;11.77;6.03;;;;;;;;;;4895763;29;20043;-66
2021/06/01 23:26:35;;;;;;;15.48;6.03;;;;;;;;;;4896237;29;20055;-65
2021/06/01 23:29:03;;;;;;;10.65;5.18;;;;;;;;;;4895962;29;20089;-65
2021/06/01 23:31:29;;;;;;;19.40;6.65;;;;;;;;;;4896009;29;20032;-66
2021/06/01 23:33:55;;;;;;;11.45;6.00;;;;;;;;;;4896064;29;20372;-65
2021/06/01 23:36:33;;;;;;;12.52;5.57;;;;;;;;;;4895209;29;20056;-66
2021/06/01 23:39:23;;;;;;;14.27;6.00;;;;;;;;;;4890512;29;20036;-67
2021/06/01 23:41:52;;;;;;;8.90;5.20;;;;;;;;;;4814768;29;20042;-66
2021/06/01 23:44:19;;;;;;;12.98;6.00;;;;;;;;;;4823256;29;20125;-66
2021/06/01 23:46:46;;;;;;;12.82;6.18;;;;;;;;;;4823437;29;20171;-66
2021/06/01 23:51:57;;;;;;;12.07;6.40;;;;;;;;;;4823654;29;20095;-66
2021/06/01 23:54:24;;;;;;;14.70;6.28;;;;;;;;;;4822949;29;20436;-66
2021/06/01 23:56:51;;;;;;;13.50;6.65;;;;;;;;;;4822949;29;20058;-66
2021/06/01 23:59:19;;;;;;;16.50;7.38;;;;;;;;;;4822876;29;20055;-66
